sensor_id;sensor_type;location;lat;lon;timestamp;P1;durP1;ratioP1;P2;durP2;ratioP2
74528;SDS011;63009;52.584;5.932;2023-07-08T00:00:41;11.18;;;5.03;;
74528;SDS011;63009;52.584;5.932;2023-07-08T00:03:07;11.90;;;4.65;;
74528;SDS011;63009;52.584;5.932;2023-07-08T00:05:32;11.80;;;5.40;;
74528;SDS011;63009;52.584;5.932;2023-07-08T00:07:58;10.77;;;5.07;;
74528;SDS011;63009;52.584;5.932;2023-07-08T00:10:24;10.07;;;4.80;;
74528;SDS011;63009;52.584;5.932;2023-07-08T00:12:53;11.63;;;4.93;;
74528;SDS011;63009;52.584;5.932;2023-07-08T00:15:22;12.15;;;5.13;;
74528;SDS011;63009;52.584;5.932;2023-07-08T00:17:50;12.25;;;5.35;;
74528;SDS011;63009;52.584;5.932;2023-07-08T00:22:45;13.35;;;4.82;;
74528;SDS011;63009;52.584;5.932;2023-07-08T00:25:12;11.05;;;4.68;;
74528;SDS011;63009;52.584;5.932;2023-07-08T00:27:39;10.02;;;4.97;;
74528;SDS011;63009;52.584;5.932;2023-07-08T00:32:47;10.57;;;4.63;;
74528;SDS011;63009;52.584;5.932;2023-07-08T00:35:18;10.75;;;4.82;;
74528;SDS011;63009;52.584;5.932;2023-07-08T00:37:44;11.98;;;5.55;;
74528;SDS011;63009;52.584;5.932;2023-07-08T00:40:15;9.80;;;4.82;;
74528;SDS011;63009;52.584;5.932;2023-07-08T00:42:43;10.73;;;4.93;;
74528;SDS011;63009;52.584;5.932;2023-07-08T00:45:19;14.75;;;5.65;;
74528;SDS011;63009;52.584;5.932;2023-07-08T00:48:11;12.57;;;5.07;;
74528;SDS011;63009;52.584;5.932;2023-07-08T00:50:43;11.20;;;4.97;;
74528;SDS011;63009;52.584;5.932;2023-07-08T00:53:22;11.98;;;4.82;;
74528;SDS011;63009;52.584;5.932;2023-07-08T00:56:02;11.98;;;5.35;;
74528;SDS011;63009;52.584;5.932;2023-07-08T00:58:34;10.27;;;5.07;;
74528;SDS011;63009;52.584;5.932;2023-07-08T01:01:05;11.82;;;5.20;;
74528;SDS011;63009;52.584;5.932;2023-07-08T01:03:33;10.27;;;5.38;;
74528;SDS011;63009;52.584;5.932;2023-07-08T01:06:14;9.07;;;4.65;;
74528;SDS011;63009;52.584;5.932;2023-07-08T01:08:39;9.75;;;4.80;;
74528;SDS011;63009;52.584;5.932;2023-07-08T01:11:05;11.43;;;4.93;;
74528;SDS011;63009;52.584;5.932;2023-07-08T01:13:32;9.52;;;5.15;;
74528;SDS011;63009;52.584;5.932;2023-07-08T01:16:02;11.52;;;5.15;;
74528;SDS011;63009;52.584;5.932;2023-07-08T01:18:28;11.32;;;4.88;;
74528;SDS011;63009;52.584;5.932;2023-07-08T01:20:54;12.35;;;4.80;;
74528;SDS011;63009;52.584;5.932;2023-07-08T01:25:48;11.27;;;4.97;;
74528;SDS011;63009;52.584;5.932;2023-07-08T01:28:15;10.68;;;4.47;;
74528;SDS011;63009;52.584;5.932;2023-07-08T01:30:43;10.82;;;5.00;;
74528;SDS011;63009;52.584;5.932;2023-07-08T01:33:15;10.25;;;5.63;;
74528;SDS011;63009;52.584;5.932;2023-07-08T01:35:44;11.32;;;4.40;;
74528;SDS011;63009;52.584;5.932;2023-07-08T01:38:10;12.23;;;4.72;;
74528;SDS011;63009;52.584;5.932;2023-07-08T01:40:46;11.18;;;4.97;;
74528;SDS011;63009;52.584;5.932;2023-07-08T01:43:13;10.65;;;4.93;;
74528;SDS011;63009;52.584;5.932;2023-07-08T01:45:39;9.87;;;4.60;;
74528;SDS011;63009;52.584;5.932;2023-07-08T01:48:15;10.30;;;5.10;;
74528;SDS011;63009;52.584;5.932;2023-07-08T01:54:00;11.98;;;5.15;;
74528;SDS011;63009;52.584;5.932;2023-07-08T01:56:19;10.80;;;5.43;;
74528;SDS011;63009;52.584;5.932;2023-07-08T01:58:44;10.65;;;5.38;;
74528;SDS011;63009;52.584;5.932;2023-07-08T02:01:10;11.20;;;4.97;;
74528;SDS011;63009;52.584;5.932;2023-07-08T02:03:35;11.10;;;5.68;;
74528;SDS011;63009;52.584;5.932;2023-07-08T02:06:01;12.68;;;5.55;;
74528;SDS011;63009;52.584;5.932;2023-07-08T02:08:28;11.73;;;5.32;;
74528;SDS011;63009;52.584;5.932;2023-07-08T02:10:57;11.60;;;5.33;;
74528;SDS011;63009;52.584;5.932;2023-07-08T02:13:23;9.57;;;4.65;;
74528;SDS011;63009;52.584;5.932;2023-07-08T02:15:49;10.88;;;5.03;;
74528;SDS011;63009;52.584;5.932;2023-07-08T02:18:15;10.55;;;5.82;;
74528;SDS011;63009;52.584;5.932;2023-07-08T02:20:40;13.10;;;6.25;;
74528;SDS011;63009;52.584;5.932;2023-07-08T02:23:07;11.75;;;4.95;;
74528;SDS011;63009;52.584;5.932;2023-07-08T02:25:32;12.35;;;5.25;;
74528;SDS011;63009;52.584;5.932;2023-07-08T02:27:58;11.83;;;5.50;;
74528;SDS011;63009;52.584;5.932;2023-07-08T02:30:24;13.93;;;5.07;;
74528;SDS011;63009;52.584;5.932;2023-07-08T02:32:49;10.27;;;4.80;;
74528;SDS011;63009;52.584;5.932;2023-07-08T02:35:22;10.98;;;5.45;;
74528;SDS011;63009;52.584;5.932;2023-07-08T02:37:48;10.60;;;5.05;;
74528;SDS011;63009;52.584;5.932;2023-07-08T02:40:13;12.30;;;5.30;;
74528;SDS011;63009;52.584;5.932;2023-07-08T02:42:39;11.57;;;5.10;;
74528;SDS011;63009;52.584;5.932;2023-07-08T02:45:04;11.82;;;5.47;;
74528;SDS011;63009;52.584;5.932;2023-07-08T02:47:30;11.32;;;5.15;;
74528;SDS011;63009;52.584;5.932;2023-07-08T02:49:55;10.23;;;5.10;;
74528;SDS011;63009;52.584;5.932;2023-07-08T02:52:21;11.87;;;5.03;;
74528;SDS011;63009;52.584;5.932;2023-07-08T02:54:46;12.30;;;5.50;;
74528;SDS011;63009;52.584;5.932;2023-07-08T02:57:11;11.47;;;5.17;;
74528;SDS011;63009;52.584;5.932;2023-07-08T02:59:36;10.80;;;4.83;;
74528;SDS011;63009;52.584;5.932;2023-07-08T03:02:02;11.13;;;5.53;;
74528;SDS011;63009;52.584;5.932;2023-07-08T03:04:27;10.00;;;5.35;;
74528;SDS011;63009;52.584;5.932;2023-07-08T03:06:53;11.07;;;5.53;;
74528;SDS011;63009;52.584;5.932;2023-07-08T03:09:18;11.53;;;5.10;;
74528;SDS011;63009;52.584;5.932;2023-07-08T03:11:43;12.82;;;5.35;;
74528;SDS011;63009;52.584;5.932;2023-07-08T03:14:08;11.23;;;5.37;;
74528;SDS011;63009;52.584;5.932;2023-07-08T03:16:34;12.30;;;6.18;;
74528;SDS011;63009;52.584;5.932;2023-07-08T03:18:59;11.10;;;4.82;;
74528;SDS011;63009;52.584;5.932;2023-07-08T03:21:25;11.15;;;5.63;;
74528;SDS011;63009;52.584;5.932;2023-07-08T03:23:50;10.85;;;5.20;;
74528;SDS011;63009;52.584;5.932;2023-07-08T03:26:17;12.75;;;6.35;;
74528;SDS011;63009;52.584;5.932;2023-07-08T03:28:47;10.27;;;5.43;;
74528;SDS011;63009;52.584;5.932;2023-07-08T03:31:13;10.98;;;5.93;;
74528;SDS011;63009;52.584;5.932;2023-07-08T03:33:38;11.73;;;5.70;;
74528;SDS011;63009;52.584;5.932;2023-07-08T03:36:04;13.17;;;6.13;;
74528;SDS011;63009;52.584;5.932;2023-07-08T03:38:37;11.52;;;5.80;;
74528;SDS011;63009;52.584;5.932;2023-07-08T03:41:02;10.07;;;5.68;;
74528;SDS011;63009;52.584;5.932;2023-07-08T03:43:28;12.57;;;6.40;;
74528;SDS011;63009;52.584;5.932;2023-07-08T03:45:53;12.63;;;5.67;;
74528;SDS011;63009;52.584;5.932;2023-07-08T03:48:18;12.38;;;5.95;;
74528;SDS011;63009;52.584;5.932;2023-07-08T03:50:43;13.23;;;5.70;;
74528;SDS011;63009;52.584;5.932;2023-07-08T03:53:09;12.85;;;6.13;;
74528;SDS011;63009;52.584;5.932;2023-07-08T03:55:34;11.45;;;5.80;;
74528;SDS011;63009;52.584;5.932;2023-07-08T03:58:00;11.67;;;5.53;;
74528;SDS011;63009;52.584;5.932;2023-07-08T04:00:25;12.00;;;6.27;;
74528;SDS011;63009;52.584;5.932;2023-07-08T04:02:50;12.32;;;6.13;;
74528;SDS011;63009;52.584;5.932;2023-07-08T04:05:16;12.43;;;5.93;;
74528;SDS011;63009;52.584;5.932;2023-07-08T04:07:46;13.02;;;5.78;;
74528;SDS011;63009;52.584;5.932;2023-07-08T04:10:12;14.32;;;5.80;;
74528;SDS011;63009;52.584;5.932;2023-07-08T04:12:37;10.77;;;5.57;;
74528;SDS011;63009;52.584;5.932;2023-07-08T04:15:03;14.82;;;6.43;;
74528;SDS011;63009;52.584;5.932;2023-07-08T04:17:29;11.75;;;5.80;;
74528;SDS011;63009;52.584;5.932;2023-07-08T04:19:55;11.70;;;6.00;;
74528;SDS011;63009;52.584;5.932;2023-07-08T04:22:22;11.52;;;5.60;;
74528;SDS011;63009;52.584;5.932;2023-07-08T04:24:47;12.25;;;6.15;;
74528;SDS011;63009;52.584;5.932;2023-07-08T04:27:14;11.20;;;5.93;;
74528;SDS011;63009;52.584;5.932;2023-07-08T04:29:41;18.88;;;6.18;;
74528;SDS011;63009;52.584;5.932;2023-07-08T04:32:06;12.27;;;6.85;;
74528;SDS011;63009;52.584;5.932;2023-07-08T04:34:32;10.63;;;5.70;;
74528;SDS011;63009;52.584;5.932;2023-07-08T04:36:57;11.35;;;6.40;;
74528;SDS011;63009;52.584;5.932;2023-07-08T04:39:23;13.23;;;6.43;;
74528;SDS011;63009;52.584;5.932;2023-07-08T04:41:48;13.27;;;5.90;;
74528;SDS011;63009;52.584;5.932;2023-07-08T04:44:13;10.77;;;5.83;;
74528;SDS011;63009;52.584;5.932;2023-07-08T04:46:49;13.48;;;6.40;;
74528;SDS011;63009;52.584;5.932;2023-07-08T04:49:19;13.73;;;6.30;;
74528;SDS011;63009;52.584;5.932;2023-07-08T04:51:45;13.13;;;5.93;;
74528;SDS011;63009;52.584;5.932;2023-07-08T04:54:10;13.50;;;5.68;;
74528;SDS011;63009;52.584;5.932;2023-07-08T04:59:03;10.20;;;5.63;;
74528;SDS011;63009;52.584;5.932;2023-07-08T05:01:29;11.55;;;6.05;;
74528;SDS011;63009;52.584;5.932;2023-07-08T05:03:54;13.18;;;6.68;;
74528;SDS011;63009;52.584;5.932;2023-07-08T05:06:20;12.88;;;6.95;;
74528;SDS011;63009;52.584;5.932;2023-07-08T05:08:45;12.47;;;6.60;;
74528;SDS011;63009;52.584;5.932;2023-07-08T05:11:10;11.77;;;6.30;;
74528;SDS011;63009;52.584;5.932;2023-07-08T05:13:35;9.88;;;5.38;;
74528;SDS011;63009;52.584;5.932;2023-07-08T05:16:01;13.70;;;6.70;;
74528;SDS011;63009;52.584;5.932;2023-07-08T05:18:26;12.43;;;6.30;;
74528;SDS011;63009;52.584;5.932;2023-07-08T05:20:52;11.18;;;6.05;;
74528;SDS011;63009;52.584;5.932;2023-07-08T05:23:19;11.60;;;6.30;;
74528;SDS011;63009;52.584;5.932;2023-07-08T05:25:45;11.10;;;5.43;;
74528;SDS011;63009;52.584;5.932;2023-07-08T05:28:11;11.02;;;6.10;;
74528;SDS011;63009;52.584;5.932;2023-07-08T05:30:36;12.17;;;6.33;;
74528;SDS011;63009;52.584;5.932;2023-07-08T05:33:01;12.90;;;5.70;;
74528;SDS011;63009;52.584;5.932;2023-07-08T05:35:27;11.52;;;6.18;;
74528;SDS011;63009;52.584;5.932;2023-07-08T05:37:52;10.30;;;5.70;;
74528;SDS011;63009;52.584;5.932;2023-07-08T05:40:17;10.63;;;5.90;;
74528;SDS011;63009;52.584;5.932;2023-07-08T05:42:43;11.70;;;5.70;;
74528;SDS011;63009;52.584;5.932;2023-07-08T05:45:08;11.00;;;5.40;;
74528;SDS011;63009;52.584;5.932;2023-07-08T05:47:35;10.65;;;5.85;;
74528;SDS011;63009;52.584;5.932;2023-07-08T05:50:01;11.38;;;5.65;;
74528;SDS011;63009;52.584;5.932;2023-07-08T05:52:27;11.80;;;5.82;;
74528;SDS011;63009;52.584;5.932;2023-07-08T05:54:52;13.27;;;5.57;;
74528;SDS011;63009;52.584;5.932;2023-07-08T05:57:17;11.18;;;5.22;;
74528;SDS011;63009;52.584;5.932;2023-07-08T05:59:43;10.07;;;5.30;;
74528;SDS011;63009;52.584;5.932;2023-07-08T06:02:08;10.93;;;5.50;;
74528;SDS011;63009;52.584;5.932;2023-07-08T06:04:35;10.70;;;4.90;;
74528;SDS011;63009;52.584;5.932;2023-07-08T06:07:01;11.23;;;5.80;;
74528;SDS011;63009;52.584;5.932;2023-07-08T06:09:26;10.55;;;5.63;;
74528;SDS011;63009;52.584;5.932;2023-07-08T06:11:52;10.38;;;5.72;;
74528;SDS011;63009;52.584;5.932;2023-07-08T06:14:17;10.23;;;5.53;;
74528;SDS011;63009;52.584;5.932;2023-07-08T06:16:42;21.20;;;5.97;;
74528;SDS011;63009;52.584;5.932;2023-07-08T06:19:08;12.60;;;5.17;;
74528;SDS011;63009;52.584;5.932;2023-07-08T06:21:34;10.45;;;5.50;;
74528;SDS011;63009;52.584;5.932;2023-07-08T06:23:59;11.48;;;5.50;;
74528;SDS011;63009;52.584;5.932;2023-07-08T06:26:24;10.33;;;4.87;;
74528;SDS011;63009;52.584;5.932;2023-07-08T06:28:50;18.77;;;5.87;;
74528;SDS011;63009;52.584;5.932;2023-07-08T06:31:15;11.82;;;5.70;;
74528;SDS011;63009;52.584;5.932;2023-07-08T06:33:41;10.43;;;5.10;;
74528;SDS011;63009;52.584;5.932;2023-07-08T06:36:07;9.77;;;5.25;;
74528;SDS011;63009;52.584;5.932;2023-07-08T06:38:33;11.23;;;5.65;;
74528;SDS011;63009;52.584;5.932;2023-07-08T06:40:58;9.90;;;4.78;;
74528;SDS011;63009;52.584;5.932;2023-07-08T06:43:23;9.93;;;4.78;;
74528;SDS011;63009;52.584;5.932;2023-07-08T06:45:49;14.20;;;5.80;;
74528;SDS011;63009;52.584;5.932;2023-07-08T06:48:14;9.50;;;4.83;;
74528;SDS011;63009;52.584;5.932;2023-07-08T06:50:41;9.45;;;4.97;;
74528;SDS011;63009;52.584;5.932;2023-07-08T06:53:08;10.35;;;4.93;;
74528;SDS011;63009;52.584;5.932;2023-07-08T06:55:33;10.60;;;4.65;;
74528;SDS011;63009;52.584;5.932;2023-07-08T06:57:58;10.10;;;5.07;;
74528;SDS011;63009;52.584;5.932;2023-07-08T07:00:24;10.77;;;4.63;;
74528;SDS011;63009;52.584;5.932;2023-07-08T07:02:49;9.65;;;4.20;;
74528;SDS011;63009;52.584;5.932;2023-07-08T07:05:15;10.80;;;4.63;;
74528;SDS011;63009;52.584;5.932;2023-07-08T07:07:40;8.63;;;4.40;;
74528;SDS011;63009;52.584;5.932;2023-07-08T07:10:05;9.37;;;4.10;;
74528;SDS011;63009;52.584;5.932;2023-07-08T07:12:33;10.50;;;5.05;;
74528;SDS011;63009;52.584;5.932;2023-07-08T07:14:59;9.32;;;4.25;;
74528;SDS011;63009;52.584;5.932;2023-07-08T07:17:25;9.43;;;4.03;;
74528;SDS011;63009;52.584;5.932;2023-07-08T07:19:52;10.00;;;4.80;;
74528;SDS011;63009;52.584;5.932;2023-07-08T07:22:18;8.60;;;3.97;;
74528;SDS011;63009;52.584;5.932;2023-07-08T07:24:43;10.67;;;4.50;;
74528;SDS011;63009;52.584;5.932;2023-07-08T07:27:08;9.57;;;4.53;;
74528;SDS011;63009;52.584;5.932;2023-07-08T07:29:45;10.75;;;4.30;;
74528;SDS011;63009;52.584;5.932;2023-07-08T07:32:12;11.18;;;4.43;;
74528;SDS011;63009;52.584;5.932;2023-07-08T07:34:38;8.55;;;4.38;;
74528;SDS011;63009;52.584;5.932;2023-07-08T07:37:05;8.65;;;4.45;;
74528;SDS011;63009;52.584;5.932;2023-07-08T07:39:31;12.38;;;4.85;;
74528;SDS011;63009;52.584;5.932;2023-07-08T07:41:56;10.27;;;4.30;;
74528;SDS011;63009;52.584;5.932;2023-07-08T07:44:22;9.53;;;4.10;;
74528;SDS011;63009;52.584;5.932;2023-07-08T07:46:47;9.77;;;4.37;;
74528;SDS011;63009;52.584;5.932;2023-07-08T07:49:12;9.20;;;4.10;;
74528;SDS011;63009;52.584;5.932;2023-07-08T07:51:38;9.80;;;4.65;;
74528;SDS011;63009;52.584;5.932;2023-07-08T07:54:04;11.48;;;4.25;;
74528;SDS011;63009;52.584;5.932;2023-07-08T07:56:29;9.30;;;4.40;;
74528;SDS011;63009;52.584;5.932;2023-07-08T07:58:54;9.77;;;4.37;;
74528;SDS011;63009;52.584;5.932;2023-07-08T08:01:20;9.60;;;5.00;;
74528;SDS011;63009;52.584;5.932;2023-07-08T08:03:46;8.82;;;4.43;;
74528;SDS011;63009;52.584;5.932;2023-07-08T08:06:11;10.10;;;4.47;;
74528;SDS011;63009;52.584;5.932;2023-07-08T08:08:37;9.00;;;3.87;;
74528;SDS011;63009;52.584;5.932;2023-07-08T08:11:02;12.03;;;4.10;;
74528;SDS011;63009;52.584;5.932;2023-07-08T08:13:27;9.47;;;3.80;;
74528;SDS011;63009;52.584;5.932;2023-07-08T08:15:56;8.50;;;4.37;;
74528;SDS011;63009;52.584;5.932;2023-07-08T08:18:22;8.60;;;4.28;;
74528;SDS011;63009;52.584;5.932;2023-07-08T08:20:49;12.93;;;4.88;;
74528;SDS011;63009;52.584;5.932;2023-07-08T08:25:41;9.00;;;3.90;;
74528;SDS011;63009;52.584;5.932;2023-07-08T08:28:06;8.17;;;3.77;;
74528;SDS011;63009;52.584;5.932;2023-07-08T08:30:31;10.63;;;4.23;;
74528;SDS011;63009;52.584;5.932;2023-07-08T08:32:57;9.80;;;4.45;;
74528;SDS011;63009;52.584;5.932;2023-07-08T08:35:22;8.77;;;3.70;;
74528;SDS011;63009;52.584;5.932;2023-07-08T08:37:48;10.85;;;4.25;;
74528;SDS011;63009;52.584;5.932;2023-07-08T08:40:17;10.98;;;4.07;;
74528;SDS011;63009;52.584;5.932;2023-07-08T08:42:44;9.43;;;4.05;;
74528;SDS011;63009;52.584;5.932;2023-07-08T08:45:17;8.32;;;3.80;;
74528;SDS011;63009;52.584;5.932;2023-07-08T08:47:45;9.10;;;4.22;;
74528;SDS011;63009;52.584;5.932;2023-07-08T08:50:27;11.63;;;4.32;;
74528;SDS011;63009;52.584;5.932;2023-07-08T08:53:03;9.25;;;4.30;;
74528;SDS011;63009;52.584;5.932;2023-07-08T08:55:33;8.30;;;3.75;;
74528;SDS011;63009;52.584;5.932;2023-07-08T08:58:06;8.87;;;3.93;;
74528;SDS011;63009;52.584;5.932;2023-07-08T09:00:46;9.75;;;4.60;;
74528;SDS011;63009;52.584;5.932;2023-07-08T09:03:22;8.18;;;4.15;;
74528;SDS011;63009;52.584;5.932;2023-07-08T09:05:52;9.10;;;4.10;;
74528;SDS011;63009;52.584;5.932;2023-07-08T09:08:24;9.60;;;4.45;;
74528;SDS011;63009;52.584;5.932;2023-07-08T09:10:57;8.52;;;3.67;;
74528;SDS011;63009;52.584;5.932;2023-07-08T09:13:33;10.45;;;4.20;;
74528;SDS011;63009;52.584;5.932;2023-07-08T09:22:04;9.68;;;4.30;;
74528;SDS011;63009;52.584;5.932;2023-07-08T09:27:08;9.80;;;4.13;;
74528;SDS011;63009;52.584;5.932;2023-07-08T09:29:34;8.03;;;4.00;;
74528;SDS011;63009;52.584;5.932;2023-07-08T09:32:00;11.52;;;4.20;;
74528;SDS011;63009;52.584;5.932;2023-07-08T09:34:41;9.32;;;3.92;;
74528;SDS011;63009;52.584;5.932;2023-07-08T09:37:22;9.75;;;4.35;;
74528;SDS011;63009;52.584;5.932;2023-07-08T09:39:51;9.63;;;4.10;;
74528;SDS011;63009;52.584;5.932;2023-07-08T09:42:17;8.68;;;4.07;;
74528;SDS011;63009;52.584;5.932;2023-07-08T09:44:44;9.82;;;3.83;;
74528;SDS011;63009;52.584;5.932;2023-07-08T09:47:23;10.20;;;4.03;;
74528;SDS011;63009;52.584;5.932;2023-07-08T09:49:59;20.45;;;4.43;;
74528;SDS011;63009;52.584;5.932;2023-07-08T09:52:26;10.77;;;4.82;;
74528;SDS011;63009;52.584;5.932;2023-07-08T09:54:54;10.70;;;3.72;;
74528;SDS011;63009;52.584;5.932;2023-07-08T09:57:29;9.48;;;4.30;;
74528;SDS011;63009;52.584;5.932;2023-07-08T09:59:59;8.63;;;4.05;;
74528;SDS011;63009;52.584;5.932;2023-07-08T10:02:29;8.10;;;4.03;;
74528;SDS011;63009;52.584;5.932;2023-07-08T10:05:49;10.05;;;4.75;;
74528;SDS011;63009;52.584;5.932;2023-07-08T10:07:51;9.38;;;4.30;;
74528;SDS011;63009;52.584;5.932;2023-07-08T10:10:22;10.63;;;4.35;;
74528;SDS011;63009;52.584;5.932;2023-07-08T10:13:06;11.43;;;4.90;;
74528;SDS011;63009;52.584;5.932;2023-07-08T10:15:55;8.23;;;4.05;;
74528;SDS011;63009;52.584;5.932;2023-07-08T10:18:28;9.90;;;4.60;;
74528;SDS011;63009;52.584;5.932;2023-07-08T10:20:59;9.43;;;4.18;;
74528;SDS011;63009;52.584;5.932;2023-07-08T10:26:14;10.45;;;4.60;;
74528;SDS011;63009;52.584;5.932;2023-07-08T10:43:22;9.32;;;4.40;;
74528;SDS011;63009;52.584;5.932;2023-07-08T10:45:53;8.65;;;4.25;;
74528;SDS011;63009;52.584;5.932;2023-07-08T10:57:25;9.02;;;3.95;;
74528;SDS011;63009;52.584;5.932;2023-07-08T11:05:37;8.32;;;4.00;;
74528;SDS011;63009;52.584;5.932;2023-07-08T11:08:11;9.05;;;4.47;;
74528;SDS011;63009;52.584;5.932;2023-07-08T11:11:06;8.82;;;4.45;;
74528;SDS011;63009;52.584;5.932;2023-07-08T11:13:42;8.90;;;4.20;;
74528;SDS011;63009;52.584;5.932;2023-07-08T11:16:13;14.13;;;4.97;;
74528;SDS011;63009;52.584;5.932;2023-07-08T11:18:51;9.90;;;4.18;;
74528;SDS011;63009;52.584;5.932;2023-07-08T11:21:35;8.00;;;3.90;;
74528;SDS011;63009;52.584;5.932;2023-07-08T11:26:53;9.40;;;4.32;;
74528;SDS011;63009;52.584;5.932;2023-07-08T11:29:23;9.93;;;4.57;;
74528;SDS011;63009;52.584;5.932;2023-07-08T11:31:54;11.35;;;4.35;;
74528;SDS011;63009;52.584;5.932;2023-07-08T11:34:20;9.32;;;4.60;;
74528;SDS011;63009;52.584;5.932;2023-07-08T11:36:47;8.70;;;4.70;;
74528;SDS011;63009;52.584;5.932;2023-07-08T11:39:28;8.18;;;4.40;;
74528;SDS011;63009;52.584;5.932;2023-07-08T11:44:42;8.90;;;4.53;;
74528;SDS011;63009;52.584;5.932;2023-07-08T11:47:19;9.38;;;4.43;;
74528;SDS011;63009;52.584;5.932;2023-07-08T11:49:57;9.25;;;4.78;;
74528;SDS011;63009;52.584;5.932;2023-07-08T11:52:23;9.68;;;4.35;;
74528;SDS011;63009;52.584;5.932;2023-07-08T11:54:48;9.63;;;4.43;;
74528;SDS011;63009;52.584;5.932;2023-07-08T11:57:24;9.57;;;4.43;;
74528;SDS011;63009;52.584;5.932;2023-07-08T12:02:48;9.35;;;4.40;;
74528;SDS011;63009;52.584;5.932;2023-07-08T12:05:28;10.35;;;4.90;;
74528;SDS011;63009;52.584;5.932;2023-07-08T12:08:02;8.93;;;4.28;;
74528;SDS011;63009;52.584;5.932;2023-07-08T12:10:54;8.77;;;4.78;;
74528;SDS011;63009;52.584;5.932;2023-07-08T12:13:22;9.48;;;4.63;;
74528;SDS011;63009;52.584;5.932;2023-07-08T12:15:49;9.57;;;4.72;;
74528;SDS011;63009;52.584;5.932;2023-07-08T12:18:16;10.25;;;4.82;;
74528;SDS011;63009;52.584;5.932;2023-07-08T12:20:48;11.13;;;4.95;;
74528;SDS011;63009;52.584;5.932;2023-07-08T12:23:21;11.35;;;4.85;;
74528;SDS011;63009;52.584;5.932;2023-07-08T12:25:48;9.80;;;4.85;;
74528;SDS011;63009;52.584;5.932;2023-07-08T12:28:16;10.27;;;5.30;;
74528;SDS011;63009;52.584;5.932;2023-07-08T12:30:42;8.95;;;4.53;;
74528;SDS011;63009;52.584;5.932;2023-07-08T12:33:13;9.88;;;4.85;;
74528;SDS011;63009;52.584;5.932;2023-07-08T12:35:41;14.20;;;6.03;;
74528;SDS011;63009;52.584;5.932;2023-07-08T12:40:49;17.05;;;6.10;;
74528;SDS011;63009;52.584;5.932;2023-07-08T12:43:15;21.27;;;6.85;;
74528;SDS011;63009;52.584;5.932;2023-07-08T12:45:42;11.60;;;5.28;;
74528;SDS011;63009;52.584;5.932;2023-07-08T12:48:08;10.32;;;5.38;;
74528;SDS011;63009;52.584;5.932;2023-07-08T12:50:34;12.88;;;5.63;;
74528;SDS011;63009;52.584;5.932;2023-07-08T12:52:59;11.50;;;5.30;;
74528;SDS011;63009;52.584;5.932;2023-07-08T12:55:28;10.07;;;5.00;;
74528;SDS011;63009;52.584;5.932;2023-07-08T12:57:54;20.48;;;6.57;;
74528;SDS011;63009;52.584;5.932;2023-07-08T13:00:27;10.20;;;5.63;;
74528;SDS011;63009;52.584;5.932;2023-07-08T13:02:57;9.95;;;5.00;;
74528;SDS011;63009;52.584;5.932;2023-07-08T13:05:27;9.65;;;4.65;;
74528;SDS011;63009;52.584;5.932;2023-07-08T13:07:53;39.30;;;8.25;;
74528;SDS011;63009;52.584;5.932;2023-07-08T13:10:21;12.02;;;6.13;;
74528;SDS011;63009;52.584;5.932;2023-07-08T13:12:51;9.50;;;4.95;;
74528;SDS011;63009;52.584;5.932;2023-07-08T13:15:21;9.25;;;4.80;;
74528;SDS011;63009;52.584;5.932;2023-07-08T13:17:49;10.23;;;4.72;;
74528;SDS011;63009;52.584;5.932;2023-07-08T13:20:16;9.52;;;4.93;;
74528;SDS011;63009;52.584;5.932;2023-07-08T13:22:43;10.73;;;5.15;;
74528;SDS011;63009;52.584;5.932;2023-07-08T13:25:16;10.60;;;5.45;;
74528;SDS011;63009;52.584;5.932;2023-07-08T13:27:53;11.10;;;5.53;;
74528;SDS011;63009;52.584;5.932;2023-07-08T13:30:20;9.57;;;4.97;;
74528;SDS011;63009;52.584;5.932;2023-07-08T13:32:51;10.50;;;5.07;;
74528;SDS011;63009;52.584;5.932;2023-07-08T13:35:24;10.70;;;4.82;;
74528;SDS011;63009;52.584;5.932;2023-07-08T13:38:01;10.20;;;4.50;;
74528;SDS011;63009;52.584;5.932;2023-07-08T13:40:28;11.82;;;4.97;;
74528;SDS011;63009;52.584;5.932;2023-07-08T13:42:54;10.15;;;5.35;;
74528;SDS011;63009;52.584;5.932;2023-07-08T13:45:26;10.02;;;5.20;;
74528;SDS011;63009;52.584;5.932;2023-07-08T13:47:57;10.32;;;5.22;;
74528;SDS011;63009;52.584;5.932;2023-07-08T13:50:25;10.25;;;5.30;;
74528;SDS011;63009;52.584;5.932;2023-07-08T13:52:54;10.05;;;4.95;;
74528;SDS011;63009;52.584;5.932;2023-07-08T13:55:20;12.23;;;5.15;;
74528;SDS011;63009;52.584;5.932;2023-07-08T13:57:54;10.05;;;4.95;;
74528;SDS011;63009;52.584;5.932;2023-07-08T14:00:22;9.50;;;4.88;;
74528;SDS011;63009;52.584;5.932;2023-07-08T14:02:47;10.50;;;4.83;;
74528;SDS011;63009;52.584;5.932;2023-07-08T14:05:13;10.23;;;4.60;;
74528;SDS011;63009;52.584;5.932;2023-07-08T14:07:45;10.27;;;5.40;;
74528;SDS011;63009;52.584;5.932;2023-07-08T14:10:10;11.50;;;5.20;;
74528;SDS011;63009;52.584;5.932;2023-07-08T14:12:37;12.13;;;5.00;;
74528;SDS011;63009;52.584;5.932;2023-07-08T14:15:05;11.45;;;5.40;;
74528;SDS011;63009;52.584;5.932;2023-07-08T14:17:31;11.02;;;5.28;;
74528;SDS011;63009;52.584;5.932;2023-07-08T14:19:57;9.00;;;4.88;;
74528;SDS011;63009;52.584;5.932;2023-07-08T14:22:26;9.63;;;4.85;;
74528;SDS011;63009;52.584;5.932;2023-07-08T14:24:53;12.50;;;5.95;;
74528;SDS011;63009;52.584;5.932;2023-07-08T14:27:19;11.32;;;5.15;;
74528;SDS011;63009;52.584;5.932;2023-07-08T14:29:46;11.40;;;5.40;;
74528;SDS011;63009;52.584;5.932;2023-07-08T14:32:15;11.05;;;5.35;;
74528;SDS011;63009;52.584;5.932;2023-07-08T14:34:48;11.75;;;5.30;;
74528;SDS011;63009;52.584;5.932;2023-07-08T14:37:16;10.27;;;5.10;;
74528;SDS011;63009;52.584;5.932;2023-07-08T14:39:42;10.30;;;5.38;;
74528;SDS011;63009;52.584;5.932;2023-07-08T14:42:11;9.57;;;4.78;;
74528;SDS011;63009;52.584;5.932;2023-07-08T14:44:38;11.20;;;5.22;;
74528;SDS011;63009;52.584;5.932;2023-07-08T14:47:08;11.32;;;5.05;;
74528;SDS011;63009;52.584;5.932;2023-07-08T14:49:35;15.13;;;5.47;;
74528;SDS011;63009;52.584;5.932;2023-07-08T14:52:01;10.90;;;5.25;;
74528;SDS011;63009;52.584;5.932;2023-07-08T14:54:26;10.10;;;5.15;;
74528;SDS011;63009;52.584;5.932;2023-07-08T14:56:52;10.13;;;5.17;;
74528;SDS011;63009;52.584;5.932;2023-07-08T14:59:21;11.93;;;5.57;;
74528;SDS011;63009;52.584;5.932;2023-07-08T15:01:48;10.25;;;5.18;;
74528;SDS011;63009;52.584;5.932;2023-07-08T15:04:14;11.02;;;5.05;;
74528;SDS011;63009;52.584;5.932;2023-07-08T15:06:41;10.80;;;4.93;;
74528;SDS011;63009;52.584;5.932;2023-07-08T15:09:07;9.23;;;4.35;;
74528;SDS011;63009;52.584;5.932;2023-07-08T15:11:33;11.32;;;5.00;;
74528;SDS011;63009;52.584;5.932;2023-07-08T15:13:59;12.65;;;5.47;;
74528;SDS011;63009;52.584;5.932;2023-07-08T15:16:26;12.68;;;6.28;;
74528;SDS011;63009;52.584;5.932;2023-07-08T15:18:53;10.95;;;5.35;;
74528;SDS011;63009;52.584;5.932;2023-07-08T15:21:19;10.43;;;4.93;;
74528;SDS011;63009;52.584;5.932;2023-07-08T15:23:44;10.83;;;5.87;;
74528;SDS011;63009;52.584;5.932;2023-07-08T15:26:10;10.33;;;5.13;;
74528;SDS011;63009;52.584;5.932;2023-07-08T15:31:16;10.68;;;4.93;;
74528;SDS011;63009;52.584;5.932;2023-07-08T15:33:45;10.38;;;5.22;;
74528;SDS011;63009;52.584;5.932;2023-07-08T15:36:11;11.57;;;4.57;;
74528;SDS011;63009;52.584;5.932;2023-07-08T15:38:37;12.02;;;5.32;;
74528;SDS011;63009;52.584;5.932;2023-07-08T15:41:04;9.98;;;4.68;;
74528;SDS011;63009;52.584;5.932;2023-07-08T15:43:29;10.70;;;5.28;;
74528;SDS011;63009;52.584;5.932;2023-07-08T15:45:55;11.85;;;4.70;;
74528;SDS011;63009;52.584;5.932;2023-07-08T15:48:21;10.40;;;4.25;;
74528;SDS011;63009;52.584;5.932;2023-07-08T15:50:46;10.47;;;5.00;;
74528;SDS011;63009;52.584;5.932;2023-07-08T15:53:13;13.35;;;5.32;;